aviador You're here:

LFOC Decoded Metar

CHATEAUDUN in FRANCE
Report Time2017-08-23 04:00:00
UTC Time2017-08-23 04:14:18
Flight Rules vfr VFR
WindCalm
Visibility9999 m
Phenomena:N/A
Clouds:N/A
Expected CloudBase > 400 ft AGL from Temp-Dew spread
CeilingNone
Temp15°C (ISA +1)
Dew Point14°C (94% RH)
QNH1013 hPa
Density Alt728 ft
Elevation417 ft
Report Wrong Elevation
Raw Report
METAR LFOC 230400Z AUTO 00000KT CAVOK 15/14 Q1013=

Extra information for LFOC:More info

Metar Taf Metar & Taf Last 4 Metars F.Rules Stats Wind Profile Meteogram Temp Stats Airport Information Weather charts Add Link Nearby VenuesMetar ALERT Operation Metar Decoded Social comments